sensor_id;sensor_type;location;lat;lon;timestamp;temperature;humidity
5278;DHT22;2662;51.194;6.614;2023-12-22T00:02:23;5.90;99.90
5278;DHT22;2662;51.194;6.614;2023-12-22T00:04:51;5.80;99.90
5278;DHT22;2662;51.194;6.614;2023-12-22T00:07:18;5.90;99.90
5278;DHT22;2662;51.194;6.614;2023-12-22T00:09:46;5.90;99.90
5278;DHT22;2662;51.194;6.614;2023-12-22T00:12:13;5.90;99.90
5278;DHT22;2662;51.194;6.614;2023-12-22T00:14:40;5.90;99.90
5278;DHT22;2662;51.194;6.614;2023-12-22T00:17:07;5.90;99.90
5278;DHT22;2662;51.194;6.614;2023-12-22T00:19:33;6.00;99.90
5278;DHT22;2662;51.194;6.614;2023-12-22T00:22:00;6.00;99.90
5278;DHT22;2662;51.194;6.614;2023-12-22T00:24:29;6.00;99.90
5278;DHT22;2662;51.194;6.614;2023-12-22T00:26:57;6.00;99.90
5278;DHT22;2662;51.194;6.614;2023-12-22T00:29:23;6.10;99.90
5278;DHT22;2662;51.194;6.614;2023-12-22T00:31:50;6.20;99.90
5278;DHT22;2662;51.194;6.614;2023-12-22T00:34:17;6.20;99.90
5278;DHT22;2662;51.194;6.614;2023-12-22T00:36:45;6.30;99.90
5278;DHT22;2662;51.194;6.614;2023-12-22T00:39:11;6.40;99.90
5278;DHT22;2662;51.194;6.614;2023-12-22T00:41:38;6.40;99.90
5278;DHT22;2662;51.194;6.614;2023-12-22T00:44:06;6.50;99.90
5278;DHT22;2662;51.194;6.614;2023-12-22T00:46:33;6.50;99.90
5278;DHT22;2662;51.194;6.614;2023-12-22T00:49:00;6.50;99.90
5278;DHT22;2662;51.194;6.614;2023-12-22T00:51:26;6.60;99.90
5278;DHT22;2662;51.194;6.614;2023-12-22T00:53:53;6.60;99.90
5278;DHT22;2662;51.194;6.614;2023-12-22T00:56:20;6.40;99.90
5278;DHT22;2662;51.194;6.614;2023-12-22T00:58:46;6.30;99.90
5278;DHT22;2662;51.194;6.614;2023-12-22T01:01:14;6.30;99.90
5278;DHT22;2662;51.194;6.614;2023-12-22T01:03:41;6.20;99.90
5278;DHT22;2662;51.194;6.614;2023-12-22T01:06:08;6.30;99.90
5278;DHT22;2662;51.194;6.614;2023-12-22T01:08:34;6.30;99.90
5278;DHT22;2662;51.194;6.614;2023-12-22T01:11:03;6.20;99.90
5278;DHT22;2662;51.194;6.614;2023-12-22T01:13:29;6.30;99.90
5278;DHT22;2662;51.194;6.614;2023-12-22T01:15:56;6.30;99.90
5278;DHT22;2662;51.194;6.614;2023-12-22T01:18:24;6.30;99.90
5278;DHT22;2662;51.194;6.614;2023-12-22T01:20:54;6.40;99.90
5278;DHT22;2662;51.194;6.614;2023-12-22T01:23:21;6.40;99.90
5278;DHT22;2662;51.194;6.614;2023-12-22T01:25:48;6.50;99.90
5278;DHT22;2662;51.194;6.614;2023-12-22T01:28:14;6.60;99.90
5278;DHT22;2662;51.194;6.614;2023-12-22T01:30:41;6.60;99.90
5278;DHT22;2662;51.194;6.614;2023-12-22T01:33:08;6.60;99.90
5278;DHT22;2662;51.194;6.614;2023-12-22T01:35:36;6.60;99.90
5278;DHT22;2662;51.194;6.614;2023-12-22T01:38:03;6.50;99.90
5278;DHT22;2662;51.194;6.614;2023-12-22T01:40:29;6.50;99.90
5278;DHT22;2662;51.194;6.614;2023-12-22T01:42:56;6.50;99.90
5278;DHT22;2662;51.194;6.614;2023-12-22T01:45:23;6.40;99.90
5278;DHT22;2662;51.194;6.614;2023-12-22T01:47:50;6.40;99.90
5278;DHT22;2662;51.194;6.614;2023-12-22T01:50:17;6.40;99.90
5278;DHT22;2662;51.194;6.614;2023-12-22T01:52:46;6.40;99.90
5278;DHT22;2662;51.194;6.614;2023-12-22T01:55:13;6.40;99.90
5278;DHT22;2662;51.194;6.614;2023-12-22T01:57:42;6.30;99.90
5278;DHT22;2662;51.194;6.614;2023-12-22T02:00:11;6.30;99.90
5278;DHT22;2662;51.194;6.614;2023-12-22T02:02:39;6.30;99.90
5278;DHT22;2662;51.194;6.614;2023-12-22T02:05:08;6.30;99.90
5278;DHT22;2662;51.194;6.614;2023-12-22T02:07:37;6.30;99.90
5278;DHT22;2662;51.194;6.614;2023-12-22T02:10:07;6.30;99.90
5278;DHT22;2662;51.194;6.614;2023-12-22T02:12:34;6.30;99.90
5278;DHT22;2662;51.194;6.614;2023-12-22T02:15:01;6.30;99.90
5278;DHT22;2662;51.194;6.614;2023-12-22T02:17:34;6.40;99.90
5278;DHT22;2662;51.194;6.614;2023-12-22T02:20:04;6.40;99.90
5278;DHT22;2662;51.194;6.614;2023-12-22T02:22:34;6.50;99.90
5278;DHT22;2662;51.194;6.614;2023-12-22T02:25:01;6.50;99.90
5278;DHT22;2662;51.194;6.614;2023-12-22T02:27:34;6.50;99.90
5278;DHT22;2662;51.194;6.614;2023-12-22T02:30:08;6.50;99.90
5278;DHT22;2662;51.194;6.614;2023-12-22T02:32:38;6.50;99.90
5278;DHT22;2662;51.194;6.614;2023-12-22T02:35:09;6.50;99.90
5278;DHT22;2662;51.194;6.614;2023-12-22T02:37:39;6.60;99.90
5278;DHT22;2662;51.194;6.614;2023-12-22T02:40:07;6.60;99.90
5278;DHT22;2662;51.194;6.614;2023-12-22T02:42:34;6.70;99.90
5278;DHT22;2662;51.194;6.614;2023-12-22T02:45:03;6.70;99.90
5278;DHT22;2662;51.194;6.614;2023-12-22T02:47:30;6.60;99.90
5278;DHT22;2662;51.194;6.614;2023-12-22T02:49:57;6.60;99.90
5278;DHT22;2662;51.194;6.614;2023-12-22T02:52:24;6.60;99.90
5278;DHT22;2662;51.194;6.614;2023-12-22T02:54:52;6.70;99.90
5278;DHT22;2662;51.194;6.614;2023-12-22T02:57:19;6.70;99.90
5278;DHT22;2662;51.194;6.614;2023-12-22T02:59:46;6.60;99.90
5278;DHT22;2662;51.194;6.614;2023-12-22T03:02:13;6.60;99.90
5278;DHT22;2662;51.194;6.614;2023-12-22T03:04:39;6.50;99.90
5278;DHT22;2662;51.194;6.614;2023-12-22T03:07:06;6.40;99.90
5278;DHT22;2662;51.194;6.614;2023-12-22T03:09:33;6.40;99.90
5278;DHT22;2662;51.194;6.614;2023-12-22T03:12:01;6.40;99.90
5278;DHT22;2662;51.194;6.614;2023-12-22T03:14:29;6.40;99.90
5278;DHT22;2662;51.194;6.614;2023-12-22T03:16:55;6.40;99.90
5278;DHT22;2662;51.194;6.614;2023-12-22T03:19:22;6.40;99.90
5278;DHT22;2662;51.194;6.614;2023-12-22T03:21:49;6.40;99.90
5278;DHT22;2662;51.194;6.614;2023-12-22T03:24:16;6.40;99.90
5278;DHT22;2662;51.194;6.614;2023-12-22T03:26:44;6.50;99.90
5278;DHT22;2662;51.194;6.614;2023-12-22T03:29:12;6.50;99.90
5278;DHT22;2662;51.194;6.614;2023-12-22T03:31:38;6.50;99.90
5278;DHT22;2662;51.194;6.614;2023-12-22T03:34:05;6.50;99.90
5278;DHT22;2662;51.194;6.614;2023-12-22T03:36:32;6.60;99.90
5278;DHT22;2662;51.194;6.614;2023-12-22T03:38:59;6.60;99.90
5278;DHT22;2662;51.194;6.614;2023-12-22T03:41:26;6.70;99.90
5278;DHT22;2662;51.194;6.614;2023-12-22T03:43:54;6.80;99.90
5278;DHT22;2662;51.194;6.614;2023-12-22T03:46:23;6.90;99.90
5278;DHT22;2662;51.194;6.614;2023-12-22T03:48:50;6.90;99.90
5278;DHT22;2662;51.194;6.614;2023-12-22T03:51:17;6.90;99.90
5278;DHT22;2662;51.194;6.614;2023-12-22T03:53:43;7.00;99.90
5278;DHT22;2662;51.194;6.614;2023-12-22T03:56:10;7.00;99.90
5278;DHT22;2662;51.194;6.614;2023-12-22T03:58:37;7.00;99.90
5278;DHT22;2662;51.194;6.614;2023-12-22T04:01:04;7.10;99.90
5278;DHT22;2662;51.194;6.614;2023-12-22T04:03:34;7.10;99.90
5278;DHT22;2662;51.194;6.614;2023-12-22T04:06:02;7.00;99.90
5278;DHT22;2662;51.194;6.614;2023-12-22T04:08:28;7.00;99.90
5278;DHT22;2662;51.194;6.614;2023-12-22T04:10:55;7.00;99.90
5278;DHT22;2662;51.194;6.614;2023-12-22T04:13:22;7.00;99.90
5278;DHT22;2662;51.194;6.614;2023-12-22T04:15:49;7.00;99.90
5278;DHT22;2662;51.194;6.614;2023-12-22T04:18:15;7.00;99.90
5278;DHT22;2662;51.194;6.614;2023-12-22T04:20:43;7.10;99.90
5278;DHT22;2662;51.194;6.614;2023-12-22T04:23:10;7.10;99.90
5278;DHT22;2662;51.194;6.614;2023-12-22T04:25:37;7.10;99.90
5278;DHT22;2662;51.194;6.614;2023-12-22T04:28:04;7.10;99.90
5278;DHT22;2662;51.194;6.614;2023-12-22T04:30:31;7.20;99.90
5278;DHT22;2662;51.194;6.614;2023-12-22T04:32:58;7.30;99.90
5278;DHT22;2662;51.194;6.614;2023-12-22T04:35:24;7.30;99.90
5278;DHT22;2662;51.194;6.614;2023-12-22T04:37:52;7.40;99.90
5278;DHT22;2662;51.194;6.614;2023-12-22T04:40:19;7.50;99.90
5278;DHT22;2662;51.194;6.614;2023-12-22T04:42:46;7.40;99.90
5278;DHT22;2662;51.194;6.614;2023-12-22T04:45:15;7.50;99.90
5278;DHT22;2662;51.194;6.614;2023-12-22T04:47:42;7.50;99.90
5278;DHT22;2662;51.194;6.614;2023-12-22T04:50:09;7.50;99.90
5278;DHT22;2662;51.194;6.614;2023-12-22T04:52:36;7.50;99.90
5278;DHT22;2662;51.194;6.614;2023-12-22T04:55:04;7.50;99.90
5278;DHT22;2662;51.194;6.614;2023-12-22T04:57:31;7.60;99.90
5278;DHT22;2662;51.194;6.614;2023-12-22T04:59:58;7.70;99.90
5278;DHT22;2662;51.194;6.614;2023-12-22T05:02:25;7.80;99.90
5278;DHT22;2662;51.194;6.614;2023-12-22T05:04:52;7.90;99.90
5278;DHT22;2662;51.194;6.614;2023-12-22T05:07:18;7.90;99.90
5278;DHT22;2662;51.194;6.614;2023-12-22T05:09:45;8.00;99.90
5278;DHT22;2662;51.194;6.614;2023-12-22T05:12:14;8.00;99.90
5278;DHT22;2662;51.194;6.614;2023-12-22T05:14:40;8.10;99.90
5278;DHT22;2662;51.194;6.614;2023-12-22T05:17:07;8.10;99.90
5278;DHT22;2662;51.194;6.614;2023-12-22T05:19:34;8.20;99.90
5278;DHT22;2662;51.194;6.614;2023-12-22T05:22:00;8.20;99.90
5278;DHT22;2662;51.194;6.614;2023-12-22T05:24:27;8.20;99.90
5278;DHT22;2662;51.194;6.614;2023-12-22T05:26:54;8.30;99.90
5278;DHT22;2662;51.194;6.614;2023-12-22T05:29:22;8.30;99.90
5278;DHT22;2662;51.194;6.614;2023-12-22T05:31:49;8.30;99.90
5278;DHT22;2662;51.194;6.614;2023-12-22T05:34:15;8.40;99.90
5278;DHT22;2662;51.194;6.614;2023-12-22T05:36:42;8.40;99.90
5278;DHT22;2662;51.194;6.614;2023-12-22T05:39:09;8.50;99.90
5278;DHT22;2662;51.194;6.614;2023-12-22T05:41:35;8.50;99.90
5278;DHT22;2662;51.194;6.614;2023-12-22T05:44:03;8.50;99.90
5278;DHT22;2662;51.194;6.614;2023-12-22T05:46:36;8.50;99.90
5278;DHT22;2662;51.194;6.614;2023-12-22T05:49:12;8.50;99.90
5278;DHT22;2662;51.194;6.614;2023-12-22T05:51:39;8.50;99.90
5278;DHT22;2662;51.194;6.614;2023-12-22T05:54:07;8.60;99.90
5278;DHT22;2662;51.194;6.614;2023-12-22T05:56:34;8.60;99.90
5278;DHT22;2662;51.194;6.614;2023-12-22T05:59:01;8.60;99.90
5278;DHT22;2662;51.194;6.614;2023-12-22T06:01:28;8.60;99.90
5278;DHT22;2662;51.194;6.614;2023-12-22T06:03:58;8.70;99.90
5278;DHT22;2662;51.194;6.614;2023-12-22T06:06:25;8.70;99.90
5278;DHT22;2662;51.194;6.614;2023-12-22T06:08:52;8.70;99.90
5278;DHT22;2662;51.194;6.614;2023-12-22T06:11:19;8.70;99.90
5278;DHT22;2662;51.194;6.614;2023-12-22T06:13:46;8.70;99.90
5278;DHT22;2662;51.194;6.614;2023-12-22T06:16:13;8.70;99.90
5278;DHT22;2662;51.194;6.614;2023-12-22T06:18:40;8.70;99.90
5278;DHT22;2662;51.194;6.614;2023-12-22T06:21:09;8.70;99.90
5278;DHT22;2662;51.194;6.614;2023-12-22T06:23:36;8.70;99.90
5278;DHT22;2662;51.194;6.614;2023-12-22T06:26:08;8.80;99.90
5278;DHT22;2662;51.194;6.614;2023-12-22T06:28:35;8.80;99.90
5278;DHT22;2662;51.194;6.614;2023-12-22T06:31:02;8.80;99.90
5278;DHT22;2662;51.194;6.614;2023-12-22T06:33:30;8.80;99.90
5278;DHT22;2662;51.194;6.614;2023-12-22T06:35:57;8.80;99.90
5278;DHT22;2662;51.194;6.614;2023-12-22T06:38:25;8.90;99.90
5278;DHT22;2662;51.194;6.614;2023-12-22T06:40:51;8.90;99.90
5278;DHT22;2662;51.194;6.614;2023-12-22T06:43:18;8.90;99.90
5278;DHT22;2662;51.194;6.614;2023-12-22T06:45:45;8.80;99.90
5278;DHT22;2662;51.194;6.614;2023-12-22T06:48:12;8.70;99.90
5278;DHT22;2662;51.194;6.614;2023-12-22T06:50:39;8.60;99.90
5278;DHT22;2662;51.194;6.614;2023-12-22T06:53:05;8.60;99.90
5278;DHT22;2662;51.194;6.614;2023-12-22T06:55:34;8.50;99.90
5278;DHT22;2662;51.194;6.614;2023-12-22T06:58:01;8.40;99.90
5278;DHT22;2662;51.194;6.614;2023-12-22T07:00:27;8.30;99.90
5278;DHT22;2662;51.194;6.614;2023-12-22T07:02:54;8.30;99.90
5278;DHT22;2662;51.194;6.614;2023-12-22T07:05:34;8.30;99.90
5278;DHT22;2662;51.194;6.614;2023-12-22T07:08:06;8.40;99.90
5278;DHT22;2662;51.194;6.614;2023-12-22T07:10:34;8.40;99.90
5278;DHT22;2662;51.194;6.614;2023-12-22T07:13:01;8.40;99.90
5278;DHT22;2662;51.194;6.614;2023-12-22T07:15:27;8.40;99.90
5278;DHT22;2662;51.194;6.614;2023-12-22T07:17:54;8.40;99.90
5278;DHT22;2662;51.194;6.614;2023-12-22T07:20:21;8.40;99.90
5278;DHT22;2662;51.194;6.614;2023-12-22T07:22:48;8.30;99.90
5278;DHT22;2662;51.194;6.614;2023-12-22T07:25:17;8.10;99.90
5278;DHT22;2662;51.194;6.614;2023-12-22T07:27:46;8.00;99.90
5278;DHT22;2662;51.194;6.614;2023-12-22T07:30:14;7.90;99.90
5278;DHT22;2662;51.194;6.614;2023-12-22T07:32:43;7.90;99.90
5278;DHT22;2662;51.194;6.614;2023-12-22T07:35:13;7.90;99.90
5278;DHT22;2662;51.194;6.614;2023-12-22T07:37:40;7.80;99.90
5278;DHT22;2662;51.194;6.614;2023-12-22T07:40:08;7.80;99.90
5278;DHT22;2662;51.194;6.614;2023-12-22T07:42:35;7.80;99.90
5278;DHT22;2662;51.194;6.614;2023-12-22T07:45:05;7.80;99.90
5278;DHT22;2662;51.194;6.614;2023-12-22T07:47:33;7.80;99.90
5278;DHT22;2662;51.194;6.614;2023-12-22T07:50:01;7.90;99.90
5278;DHT22;2662;51.194;6.614;2023-12-22T07:52:28;7.90;99.90
5278;DHT22;2662;51.194;6.614;2023-12-22T07:54:55;7.90;99.90
5278;DHT22;2662;51.194;6.614;2023-12-22T07:57:22;8.00;99.90
5278;DHT22;2662;51.194;6.614;2023-12-22T07:59:48;8.00;99.90
5278;DHT22;2662;51.194;6.614;2023-12-22T08:02:16;8.10;99.90
5278;DHT22;2662;51.194;6.614;2023-12-22T08:04:43;8.20;99.90
5278;DHT22;2662;51.194;6.614;2023-12-22T08:07:10;8.20;99.90
5278;DHT22;2662;51.194;6.614;2023-12-22T08:09:36;8.20;99.90
5278;DHT22;2662;51.194;6.614;2023-12-22T08:12:04;8.30;99.90
5278;DHT22;2662;51.194;6.614;2023-12-22T08:14:30;8.40;99.90
5278;DHT22;2662;51.194;6.614;2023-12-22T08:16:57;8.40;99.90
5278;DHT22;2662;51.194;6.614;2023-12-22T08:19:26;8.50;99.90
5278;DHT22;2662;51.194;6.614;2023-12-22T08:21:53;8.50;99.90
5278;DHT22;2662;51.194;6.614;2023-12-22T08:24:19;8.60;99.90
5278;DHT22;2662;51.194;6.614;2023-12-22T08:26:46;8.70;99.90
5278;DHT22;2662;51.194;6.614;2023-12-22T08:29:13;8.70;99.90
5278;DHT22;2662;51.194;6.614;2023-12-22T08:31:41;8.70;99.90
5278;DHT22;2662;51.194;6.614;2023-12-22T08:34:09;8.80;99.90
5278;DHT22;2662;51.194;6.614;2023-12-22T08:36:37;8.80;99.90
5278;DHT22;2662;51.194;6.614;2023-12-22T08:39:04;8.90;99.90
5278;DHT22;2662;51.194;6.614;2023-12-22T08:41:31;9.00;99.90
5278;DHT22;2662;51.194;6.614;2023-12-22T08:44:01;9.00;99.90
5278;DHT22;2662;51.194;6.614;2023-12-22T08:46:28;9.10;99.90
5278;DHT22;2662;51.194;6.614;2023-12-22T08:48:56;9.10;99.90
5278;DHT22;2662;51.194;6.614;2023-12-22T08:51:23;9.10;99.90
5278;DHT22;2662;51.194;6.614;2023-12-22T08:53:51;9.20;99.90
5278;DHT22;2662;51.194;6.614;2023-12-22T08:56:20;9.30;99.90
5278;DHT22;2662;51.194;6.614;2023-12-22T08:58:46;9.40;99.90
5278;DHT22;2662;51.194;6.614;2023-12-22T09:01:15;9.40;99.90
5278;DHT22;2662;51.194;6.614;2023-12-22T09:03:42;9.50;99.90
5278;DHT22;2662;51.194;6.614;2023-12-22T09:06:13;9.50;99.90
5278;DHT22;2662;51.194;6.614;2023-12-22T09:08:40;9.50;99.90
5278;DHT22;2662;51.194;6.614;2023-12-22T09:11:10;9.60;99.90
5278;DHT22;2662;51.194;6.614;2023-12-22T09:13:37;9.60;99.90
5278;DHT22;2662;51.194;6.614;2023-12-22T09:16:04;9.70;99.90
5278;DHT22;2662;51.194;6.614;2023-12-22T09:18:31;9.70;99.90
5278;DHT22;2662;51.194;6.614;2023-12-22T09:20:58;9.70;99.90
5278;DHT22;2662;51.194;6.614;2023-12-22T09:23:25;9.70;99.90
5278;DHT22;2662;51.194;6.614;2023-12-22T09:25:52;9.80;99.90
5278;DHT22;2662;51.194;6.614;2023-12-22T09:28:20;9.90;99.90
5278;DHT22;2662;51.194;6.614;2023-12-22T09:30:47;9.90;99.90
5278;DHT22;2662;51.194;6.614;2023-12-22T09:33:13;9.80;99.90
5278;DHT22;2662;51.194;6.614;2023-12-22T09:35:40;9.80;99.90
5278;DHT22;2662;51.194;6.614;2023-12-22T09:38:08;9.90;99.90
5278;DHT22;2662;51.194;6.614;2023-12-22T09:40:35;9.90;99.90
5278;DHT22;2662;51.194;6.614;2023-12-22T09:43:03;9.90;99.90
5278;DHT22;2662;51.194;6.614;2023-12-22T09:45:32;9.90;99.90
5278;DHT22;2662;51.194;6.614;2023-12-22T09:47:59;10.00;99.90
5278;DHT22;2662;51.194;6.614;2023-12-22T09:50:27;10.00;99.90
5278;DHT22;2662;51.194;6.614;2023-12-22T09:52:54;10.10;99.90
5278;DHT22;2662;51.194;6.614;2023-12-22T09:55:21;10.10;99.90
5278;DHT22;2662;51.194;6.614;2023-12-22T09:57:49;10.10;99.90
5278;DHT22;2662;51.194;6.614;2023-12-22T10:00:17;10.10;99.90
5278;DHT22;2662;51.194;6.614;2023-12-22T10:02:46;10.10;99.90
5278;DHT22;2662;51.194;6.614;2023-12-22T10:05:13;10.10;99.90
5278;DHT22;2662;51.194;6.614;2023-12-22T10:07:40;10.10;99.90
5278;DHT22;2662;51.194;6.614;2023-12-22T10:10:08;10.10;99.90
5278;DHT22;2662;51.194;6.614;2023-12-22T10:12:36;10.00;99.90
5278;DHT22;2662;51.194;6.614;2023-12-22T10:15:05;10.10;99.90
5278;DHT22;2662;51.194;6.614;2023-12-22T10:17:35;10.10;99.90
5278;DHT22;2662;51.194;6.614;2023-12-22T10:20:03;10.20;99.90
5278;DHT22;2662;51.194;6.614;2023-12-22T10:22:30;10.30;99.90
5278;DHT22;2662;51.194;6.614;2023-12-22T10:24:57;10.30;99.90
5278;DHT22;2662;51.194;6.614;2023-12-22T10:27:24;10.30;99.90
5278;DHT22;2662;51.194;6.614;2023-12-22T10:29:53;10.20;99.90
5278;DHT22;2662;51.194;6.614;2023-12-22T10:32:20;10.30;99.90
5278;DHT22;2662;51.194;6.614;2023-12-22T10:34:47;10.20;99.90
5278;DHT22;2662;51.194;6.614;2023-12-22T10:37:16;10.20;99.90
5278;DHT22;2662;51.194;6.614;2023-12-22T10:39:43;10.20;99.90
5278;DHT22;2662;51.194;6.614;2023-12-22T10:42:14;10.10;99.90
5278;DHT22;2662;51.194;6.614;2023-12-22T10:44:41;10.20;99.90
5278;DHT22;2662;51.194;6.614;2023-12-22T10:47:08;10.20;99.90
5278;DHT22;2662;51.194;6.614;2023-12-22T10:49:36;10.20;99.90
5278;DHT22;2662;51.194;6.614;2023-12-22T10:52:04;10.30;99.90
5278;DHT22;2662;51.194;6.614;2023-12-22T10:54:32;10.40;99.90
5278;DHT22;2662;51.194;6.614;2023-12-22T10:56:59;10.40;99.90
5278;DHT22;2662;51.194;6.614;2023-12-22T10:59:28;10.40;99.90
5278;DHT22;2662;51.194;6.614;2023-12-22T11:01:57;10.40;99.90
5278;DHT22;2662;51.194;6.614;2023-12-22T11:04:29;10.40;99.90
5278;DHT22;2662;51.194;6.614;2023-12-22T11:06:57;10.40;99.90
5278;DHT22;2662;51.194;6.614;2023-12-22T11:09:26;10.50;99.90
5278;DHT22;2662;51.194;6.614;2023-12-22T11:12:01;10.50;99.90
5278;DHT22;2662;51.194;6.614;2023-12-22T11:14:29;10.60;99.90
5278;DHT22;2662;51.194;6.614;2023-12-22T11:17:00;10.60;99.90
5278;DHT22;2662;51.194;6.614;2023-12-22T11:19:28;10.70;99.90
5278;DHT22;2662;51.194;6.614;2023-12-22T11:21:58;10.80;99.90
5278;DHT22;2662;51.194;6.614;2023-12-22T11:24:25;10.90;99.90
5278;DHT22;2662;51.194;6.614;2023-12-22T11:26:58;11.00;99.90
5278;DHT22;2662;51.194;6.614;2023-12-22T11:29:26;10.90;99.90
5278;DHT22;2662;51.194;6.614;2023-12-22T11:31:55;11.00;99.90
5278;DHT22;2662;51.194;6.614;2023-12-22T11:34:25;11.00;99.90
5278;DHT22;2662;51.194;6.614;2023-12-22T11:36:53;10.90;99.90
5278;DHT22;2662;51.194;6.614;2023-12-22T11:39:21;10.90;99.90
5278;DHT22;2662;51.194;6.614;2023-12-22T11:41:48;10.90;99.90
5278;DHT22;2662;51.194;6.614;2023-12-22T11:44:19;10.90;99.90
5278;DHT22;2662;51.194;6.614;2023-12-22T11:46:46;10.90;99.90
5278;DHT22;2662;51.194;6.614;2023-12-22T11:49:14;10.90;99.90
5278;DHT22;2662;51.194;6.614;2023-12-22T11:51:40;11.00;99.90
5278;DHT22;2662;51.194;6.614;2023-12-22T11:57:29;11.00;99.90
5278;DHT22;2662;51.194;6.614;2023-12-22T12:00:01;11.10;99.90
5278;DHT22;2662;51.194;6.614;2023-12-22T12:02:30;11.10;99.90
5278;DHT22;2662;51.194;6.614;2023-12-22T12:04:58;11.20;99.90
5278;DHT22;2662;51.194;6.614;2023-12-22T12:07:41;11.20;99.90
5278;DHT22;2662;51.194;6.614;2023-12-22T12:10:10;11.30;99.90
5278;DHT22;2662;51.194;6.614;2023-12-22T12:12:38;11.40;99.90
5278;DHT22;2662;51.194;6.614;2023-12-22T12:15:12;11.40;99.90
5278;DHT22;2662;51.194;6.614;2023-12-22T12:17:41;11.50;99.90
5278;DHT22;2662;51.194;6.614;2023-12-22T12:20:09;11.50;99.90
5278;DHT22;2662;51.194;6.614;2023-12-22T12:22:37;11.40;99.90
5278;DHT22;2662;51.194;6.614;2023-12-22T12:25:08;11.40;99.90
5278;DHT22;2662;51.194;6.614;2023-12-22T12:27:37;11.40;99.90
5278;DHT22;2662;51.194;6.614;2023-12-22T12:30:14;11.40;99.90
5278;DHT22;2662;51.194;6.614;2023-12-22T12:32:44;11.50;99.90
5278;DHT22;2662;51.194;6.614;2023-12-22T12:35:11;11.50;99.90
5278;DHT22;2662;51.194;6.614;2023-12-22T12:37:40;11.50;99.90
5278;DHT22;2662;51.194;6.614;2023-12-22T12:40:08;11.50;99.90
5278;DHT22;2662;51.194;6.614;2023-12-22T12:42:38;11.60;99.90
5278;DHT22;2662;51.194;6.614;2023-12-22T12:45:05;11.60;99.90
5278;DHT22;2662;51.194;6.614;2023-12-22T12:47:35;11.50;99.90
5278;DHT22;2662;51.194;6.614;2023-12-22T12:50:02;11.50;99.90
5278;DHT22;2662;51.194;6.614;2023-12-22T12:52:29;11.40;99.90
5278;DHT22;2662;51.194;6.614;2023-12-22T12:54:57;11.40;99.90
5278;DHT22;2662;51.194;6.614;2023-12-22T12:57:25;11.40;99.90
5278;DHT22;2662;51.194;6.614;2023-12-22T12:59:52;11.40;99.90
5278;DHT22;2662;51.194;6.614;2023-12-22T13:02:19;11.40;99.90
5278;DHT22;2662;51.194;6.614;2023-12-22T13:04:49;11.30;99.90
5278;DHT22;2662;51.194;6.614;2023-12-22T13:07:24;11.30;99.90
5278;DHT22;2662;51.194;6.614;2023-12-22T13:09:51;11.30;99.90
5278;DHT22;2662;51.194;6.614;2023-12-22T13:12:19;11.30;99.90
5278;DHT22;2662;51.194;6.614;2023-12-22T13:14:46;11.10;99.90
5278;DHT22;2662;51.194;6.614;2023-12-22T13:17:13;10.90;99.90
5278;DHT22;2662;51.194;6.614;2023-12-22T13:19:40;10.90;99.90
5278;DHT22;2662;51.194;6.614;2023-12-22T13:22:09;10.90;99.90
5278;DHT22;2662;51.194;6.614;2023-12-22T13:24:36;10.90;99.90
5278;DHT22;2662;51.194;6.614;2023-12-22T13:27:04;10.90;99.90
5278;DHT22;2662;51.194;6.614;2023-12-22T13:29:42;10.90;99.90
5278;DHT22;2662;51.194;6.614;2023-12-22T13:32:15;10.90;99.90
5278;DHT22;2662;51.194;6.614;2023-12-22T13:34:47;10.80;99.90
5278;DHT22;2662;51.194;6.614;2023-12-22T13:37:15;10.90;99.90
5278;DHT22;2662;51.194;6.614;2023-12-22T13:39:43;10.80;99.90
5278;DHT22;2662;51.194;6.614;2023-12-22T13:42:14;10.80;99.90
5278;DHT22;2662;51.194;6.614;2023-12-22T13:44:45;10.80;99.90
5278;DHT22;2662;51.194;6.614;2023-12-22T13:47:13;10.90;99.90
5278;DHT22;2662;51.194;6.614;2023-12-22T13:49:41;10.90;99.90
5278;DHT22;2662;51.194;6.614;2023-12-22T13:52:08;10.90;99.90
5278;DHT22;2662;51.194;6.614;2023-12-22T13:54:36;11.00;99.90
5278;DHT22;2662;51.194;6.614;2023-12-22T13:57:04;11.00;99.90
5278;DHT22;2662;51.194;6.614;2023-12-22T13:59:31;11.00;99.90
5278;DHT22;2662;51.194;6.614;2023-12-22T14:01:58;11.00;99.90
5278;DHT22;2662;51.194;6.614;2023-12-22T14:04:25;10.90;99.90
5278;DHT22;2662;51.194;6.614;2023-12-22T14:06:52;10.80;99.90
5278;DHT22;2662;51.194;6.614;2023-12-22T14:09:19;10.80;99.90
5278;DHT22;2662;51.194;6.614;2023-12-22T14:11:51;10.80;99.90
5278;DHT22;2662;51.194;6.614;2023-12-22T14:14:18;10.60;99.90
5278;DHT22;2662;51.194;6.614;2023-12-22T14:16:45;10.60;99.90
5278;DHT22;2662;51.194;6.614;2023-12-22T14:19:11;10.60;99.90
5278;DHT22;2662;51.194;6.614;2023-12-22T14:21:38;10.60;99.90
5278;DHT22;2662;51.194;6.614;2023-12-22T14:24:05;10.60;99.90
5278;DHT22;2662;51.194;6.614;2023-12-22T14:26:33;10.50;99.90
5278;DHT22;2662;51.194;6.614;2023-12-22T14:29:01;10.50;99.90
5278;DHT22;2662;51.194;6.614;2023-12-22T14:31:28;10.40;99.90
5278;DHT22;2662;51.194;6.614;2023-12-22T14:33:54;10.30;99.90
5278;DHT22;2662;51.194;6.614;2023-12-22T14:36:23;10.30;99.90
5278;DHT22;2662;51.194;6.614;2023-12-22T14:38:50;10.30;99.90
5278;DHT22;2662;51.194;6.614;2023-12-22T14:41:17;10.40;99.90
5278;DHT22;2662;51.194;6.614;2023-12-22T14:43:44;10.40;99.90
5278;DHT22;2662;51.194;6.614;2023-12-22T14:46:12;10.30;99.90
5278;DHT22;2662;51.194;6.614;2023-12-22T14:48:39;10.30;99.90
5278;DHT22;2662;51.194;6.614;2023-12-22T14:51:05;10.30;99.90
5278;DHT22;2662;51.194;6.614;2023-12-22T14:53:32;10.30;99.90
5278;DHT22;2662;51.194;6.614;2023-12-22T14:55:59;10.30;99.90
5278;DHT22;2662;51.194;6.614;2023-12-22T14:58:27;10.30;99.90
5278;DHT22;2662;51.194;6.614;2023-12-22T15:00:55;10.30;99.90
5278;DHT22;2662;51.194;6.614;2023-12-22T15:03:24;10.20;99.90
5278;DHT22;2662;51.194;6.614;2023-12-22T15:05:50;10.20;99.90
5278;DHT22;2662;51.194;6.614;2023-12-22T15:08:17;10.20;99.90
5278;DHT22;2662;51.194;6.614;2023-12-22T15:10:44;10.10;99.90
5278;DHT22;2662;51.194;6.614;2023-12-22T15:13:11;10.10;99.90
5278;DHT22;2662;51.194;6.614;2023-12-22T15:15:37;10.10;99.90
5278;DHT22;2662;51.194;6.614;2023-12-22T15:18:04;10.10;99.90
5278;DHT22;2662;51.194;6.614;2023-12-22T15:20:33;10.00;99.90
5278;DHT22;2662;51.194;6.614;2023-12-22T15:23:00;10.10;99.90
5278;DHT22;2662;51.194;6.614;2023-12-22T15:25:26;10.10;99.90
5278;DHT22;2662;51.194;6.614;2023-12-22T15:27:53;10.10;99.90
5278;DHT22;2662;51.194;6.614;2023-12-22T15:30:20;10.10;99.90
5278;DHT22;2662;51.194;6.614;2023-12-22T15:32:47;10.00;99.90
5278;DHT22;2662;51.194;6.614;2023-12-22T15:35:14;10.00;99.90
5278;DHT22;2662;51.194;6.614;2023-12-22T15:37:42;10.00;99.90
5278;DHT22;2662;51.194;6.614;2023-12-22T15:40:10;10.10;99.90
5278;DHT22;2662;51.194;6.614;2023-12-22T15:42:37;10.10;99.90
5278;DHT22;2662;51.194;6.614;2023-12-22T15:45:04;10.10;99.90
5278;DHT22;2662;51.194;6.614;2023-12-22T15:47:31;10.10;99.90
5278;DHT22;2662;51.194;6.614;2023-12-22T15:49:58;10.10;99.90
5278;DHT22;2662;51.194;6.614;2023-12-22T15:52:25;10.10;99.90
5278;DHT22;2662;51.194;6.614;2023-12-22T15:54:53;10.10;99.90
5278;DHT22;2662;51.194;6.614;2023-12-22T15:57:20;10.10;99.90
5278;DHT22;2662;51.194;6.614;2023-12-22T15:59:47;10.10;99.90
5278;DHT22;2662;51.194;6.614;2023-12-22T16:02:15;10.10;99.90
5278;DHT22;2662;51.194;6.614;2023-12-22T16:04:42;10.10;99.90
5278;DHT22;2662;51.194;6.614;2023-12-22T16:07:09;10.10;99.90
5278;DHT22;2662;51.194;6.614;2023-12-22T16:09:36;10.20;99.90
5278;DHT22;2662;51.194;6.614;2023-12-22T16:12:05;10.20;99.90
5278;DHT22;2662;51.194;6.614;2023-12-22T16:14:32;10.20;99.90
5278;DHT22;2662;51.194;6.614;2023-12-22T16:16:59;10.20;99.90
5278;DHT22;2662;51.194;6.614;2023-12-22T16:19:26;10.20;99.90